Time;durP1;ratioP1;P1;durP2;ratioP2;P2;SDS_P1;SDS_P2;PMS_P1;PMS_P2;Temp;Humidity;BMP_temperature;BMP_pressure;BME280_temperature;BME280_humidity;BME280_pressure;Samples;Min_cycle;Max_cycle;Signal;HPM_P1;HPM_P2
2021/12/06 01:44:26;;;;;;;32.00;15.00;;;;;;;;;;6201074;22;1319766;-89
2021/12/06 01:47:39;;;;;;;34.07;14.83;;;;;;;;;;6242596;23;20162;-90
2021/12/06 01:50:47;;;;;;;35.33;15.17;;;;;;;;;;6241942;23;20206;-90
2021/12/06 01:53:53;;;;;;;35.80;15.33;;;;;;;;;;6241956;22;20154;-90
2021/12/06 01:56:58;;;;;;;32.97;15.00;;;;;;;;;;6241364;23;20182;-88
2021/12/06 02:00:07;;;;;;;36.43;15.20;;;;;;;;;;6240936;23;20182;-89
2021/12/06 02:03:24;;;;;;;36.67;15.13;;;;;;;;;;6266932;22;20167;-89
2021/12/06 02:06:29;;;;;;;38.90;16.07;;;;;;;;;;6243229;23;20175;-89
2021/12/06 02:09:35;;;;;;;40.23;15.77;;;;;;;;;;6240748;23;20174;-90
2021/12/06 02:12:47;;;;;;;46.00;17.03;;;;;;;;;;6244593;23;20170;-89
2021/12/06 02:15:55;;;;;;;40.67;16.60;;;;;;;;;;6245127;23;20174;-89
2021/12/06 02:19:18;;;;;;;45.53;17.60;;;;;;;;;;6246561;23;20265;-90
2021/12/06 02:22:26;;;;;;;42.67;17.67;;;;;;;;;;6243938;23;20194;-89
2021/12/06 02:25:32;;;;;;;44.73;17.37;;;;;;;;;;6241657;22;20175;-87
2021/12/06 02:28:37;;;;;;;41.80;16.73;;;;;;;;;;6244768;23;20170;-91
2021/12/06 02:31:43;;;;;;;39.43;16.00;;;;;;;;;;6245160;23;20217;-90
2021/12/06 02:34:50;;;;;;;41.50;16.63;;;;;;;;;;6245962;23;20249;-90
2021/12/06 02:37:58;;;;;;;43.90;16.77;;;;;;;;;;6241103;23;20170;-89
2021/12/06 02:41:03;;;;;;;41.63;16.17;;;;;;;;;;6242071;23;20194;-91
2021/12/06 02:44:09;;;;;;;39.23;15.97;;;;;;;;;;6241831;23;20245;-90
2021/12/06 02:47:14;;;;;;;36.13;14.80;;;;;;;;;;6239699;23;20172;-89
2021/12/06 02:50:19;;;;;;;32.43;14.10;;;;;;;;;;6238199;23;20206;-90
2021/12/06 02:53:27;;;;;;;32.50;14.13;;;;;;;;;;6238674;23;20169;-91
2021/12/06 02:56:39;;;;;;;32.03;13.60;;;;;;;;;;6238060;23;20166;-88
2021/12/06 02:59:45;;;;;;;30.70;13.10;;;;;;;;;;6237653;23;20241;-88
2021/12/06 03:02:51;;;;;;;33.67;14.17;;;;;;;;;;6238920;23;20162;-90
2021/12/06 03:05:56;;;;;;;31.63;14.17;;;;;;;;;;6240717;23;20176;-90
2021/12/06 03:09:07;;;;;;;33.07;14.37;;;;;;;;;;6240393;23;20174;-90
2021/12/06 03:12:13;;;;;;;31.40;13.47;;;;;;;;;;6239113;23;20228;-92
2021/12/06 03:15:19;;;;;;;31.00;13.67;;;;;;;;;;6258816;23;20174;-92
2021/12/06 03:18:26;;;;;;;32.33;13.17;;;;;;;;;;6241301;23;20174;-89
2021/12/06 03:21:32;;;;;;;28.80;13.60;;;;;;;;;;6243617;23;20194;-91
2021/12/06 03:24:39;;;;;;;28.87;13.43;;;;;;;;;;6243723;23;20501;-90
2021/12/06 03:27:48;;;;;;;30.83;13.57;;;;;;;;;;6244015;23;20170;-91
2021/12/06 03:30:54;;;;;;;29.90;13.17;;;;;;;;;;6242999;23;20235;-90
2021/12/06 03:33:59;;;;;;;30.53;13.43;;;;;;;;;;6244153;23;20163;-86
2021/12/06 03:37:06;;;;;;;36.43;15.13;;;;;;;;;;6242467;23;20245;-91
2021/12/06 03:40:16;;;;;;;33.43;13.87;;;;;;;;;;6243172;23;20305;-88
2021/12/06 03:43:23;;;;;;;29.47;13.10;;;;;;;;;;6246752;23;20205;-88
2021/12/06 03:46:34;;;;;;;30.73;13.70;;;;;;;;;;6249195;22;20166;-88
2021/12/06 03:49:42;;;;;;;30.60;13.23;;;;;;;;;;6249182;23;20493;-91
2021/12/06 03:52:48;;;;;;;28.07;13.13;;;;;;;;;;6248804;23;20211;-90
2021/12/06 03:55:59;;;;;;;32.03;14.00;;;;;;;;;;6247859;23;20242;-91
2021/12/06 03:59:04;;;;;;;34.90;15.07;;;;;;;;;;6247704;23;20174;-89
2021/12/06 04:02:09;;;;;;;32.27;14.50;;;;;;;;;;6248230;22;20234;-89
2021/12/06 04:05:16;;;;;;;31.57;14.50;;;;;;;;;;6247889;22;20167;-89
2021/12/06 04:08:25;;;;;;;35.80;14.93;;;;;;;;;;6248404;23;20241;-89
2021/12/06 04:11:32;;;;;;;29.67;13.40;;;;;;;;;;6247648;23;20513;-91
2021/12/06 04:14:40;;;;;;;29.87;13.40;;;;;;;;;;6246898;22;20170;-88
2021/12/06 04:17:46;;;;;;;33.93;13.73;;;;;;;;;;6245521;22;20169;-92
2021/12/06 04:20:53;;;;;;;31.23;13.93;;;;;;;;;;6244646;22;20159;-90
2021/12/06 04:23:58;;;;;;;33.03;14.10;;;;;;;;;;6244540;22;20167;-90
2021/12/06 04:27:13;;;;;;;29.30;13.43;;;;;;;;;;6244526;23;20234;-89
2021/12/06 04:30:19;;;;;;;28.37;13.13;;;;;;;;;;6244074;23;20267;-88
2021/12/06 04:33:25;;;;;;;30.13;13.47;;;;;;;;;;6245116;23;20173;-90
2021/12/06 04:36:30;;;;;;;30.47;13.53;;;;;;;;;;6247389;22;20158;-89
2021/12/06 04:39:36;;;;;;;30.20;13.33;;;;;;;;;;6249679;23;20217;-91
2021/12/06 04:42:44;;;;;;;28.17;12.53;;;;;;;;;;6248694;23;20222;-90
2021/12/06 04:45:49;;;;;;;30.30;13.10;;;;;;;;;;6245613;23;20473;-89
2021/12/06 04:48:55;;;;;;;29.37;13.67;;;;;;;;;;6242989;23;20221;-89
2021/12/06 04:52:02;;;;;;;33.17;13.00;;;;;;;;;;6242813;23;20266;-90
2021/12/06 04:55:16;;;;;;;32.73;13.57;;;;;;;;;;6245636;22;20223;-89
2021/12/06 04:58:31;;;;;;;34.17;13.30;;;;;;;;;;6245553;23;20209;-89
2021/12/06 05:02:09;;;;;;;38.50;13.57;;;;;;;;;;6246769;23;20194;-90
2021/12/06 05:05:19;;;;;;;33.40;14.77;;;;;;;;;;6247268;22;20190;-88
2021/12/06 05:08:38;;;;;;;30.50;14.07;;;;;;;;;;6249299;23;20493;-90
2021/12/06 05:11:45;;;;;;;31.00;12.70;;;;;;;;;;6248377;23;20199;-91
2021/12/06 05:14:53;;;;;;;29.77;12.97;;;;;;;;;;6249340;23;20693;-90
2021/12/06 05:18:00;;;;;;;28.20;13.17;;;;;;;;;;6249828;23;20194;-90
2021/12/06 05:21:06;;;;;;;31.70;12.83;;;;;;;;;;6248547;23;20204;-90
2021/12/06 05:24:17;;;;;;;29.03;12.40;;;;;;;;;;6250533;22;20171;-89
2021/12/06 05:27:28;;;;;;;27.87;11.80;;;;;;;;;;6249923;23;20239;-90
2021/12/06 05:30:37;;;;;;;27.80;11.97;;;;;;;;;;6249481;23;20574;-90
2021/12/06 05:33:43;;;;;;;28.23;12.37;;;;;;;;;;6250109;23;20163;-89
2021/12/06 05:36:48;;;;;;;29.57;12.63;;;;;;;;;;6247043;23;20167;-90
2021/12/06 05:39:54;;;;;;;29.00;13.20;;;;;;;;;;6248633;22;20224;-90
2021/12/06 05:43:00;;;;;;;32.23;13.93;;;;;;;;;;6248158;23;20270;-90
2021/12/06 05:46:07;;;;;;;26.83;12.40;;;;;;;;;;6247435;23;20167;-90
2021/12/06 05:49:12;;;;;;;28.17;12.37;;;;;;;;;;6247672;23;20194;-89
2021/12/06 05:52:17;;;;;;;30.30;12.77;;;;;;;;;;6247901;22;20174;-90
2021/12/06 05:55:24;;;;;;;29.27;12.80;;;;;;;;;;6248554;23;20174;-90
2021/12/06 05:58:31;;;;;;;30.03;13.37;;;;;;;;;;6246612;23;20261;-90
2021/12/06 06:01:39;;;;;;;31.07;13.47;;;;;;;;;;6249209;22;20186;-88
2021/12/06 06:04:45;;;;;;;29.90;12.80;;;;;;;;;;6246605;23;20214;-91
2021/12/06 06:08:20;;;;;;;36.37;14.87;;;;;;;;;;6247495;23;20171;-89
2021/12/06 06:11:25;;;;;;;35.33;14.80;;;;;;;;;;6245955;22;20170;-91
2021/12/06 06:14:31;;;;;;;33.20;13.83;;;;;;;;;;6247666;22;20214;-89
2021/12/06 06:17:42;;;;;;;35.03;14.07;;;;;;;;;;6248389;22;20173;-90
2021/12/06 06:20:54;;;;;;;40.23;15.50;;;;;;;;;;6247389;22;20165;-90
2021/12/06 06:24:03;;;;;;;31.97;12.37;;;;;;;;;;6249429;23;20167;-91
2021/12/06 06:27:09;;;;;;;35.20;14.33;;;;;;;;;;6248441;23;20190;-91
2021/12/06 06:30:16;;;;;;;36.60;14.63;;;;;;;;;;6247558;23;20167;-89
2021/12/06 06:33:23;;;;;;;35.67;13.13;;;;;;;;;;6248459;23;20216;-91
2021/12/06 06:39:49;;;;;;;34.50;13.93;;;;;;;;;;6268359;22;20225;-90
2021/12/06 06:42:57;;;;;;;32.60;13.10;;;;;;;;;;6250270;23;20240;-89
2021/12/06 06:46:02;;;;;;;34.67;14.40;;;;;;;;;;6249804;23;20166;-88
2021/12/06 06:52:28;;;;;;;35.97;13.70;;;;;;;;;;6250244;22;20244;-89
2021/12/06 06:55:33;;;;;;;37.13;14.57;;;;;;;;;;6249854;23;20239;-87
2021/12/06 06:58:39;;;;;;;32.40;13.83;;;;;;;;;;6249711;23;20178;-88
2021/12/06 07:01:45;;;;;;;41.27;14.87;;;;;;;;;;6251545;23;20195;-88
2021/12/06 07:04:53;;;;;;;31.27;13.00;;;;;;;;;;6250085;23;20230;-90
2021/12/06 07:08:03;;;;;;;28.73;12.23;;;;;;;;;;6249197;22;20205;-89
2021/12/06 07:11:09;;;;;;;32.07;13.90;;;;;;;;;;6250686;22;20258;-90
2021/12/06 07:14:15;;;;;;;35.27;15.10;;;;;;;;;;6249827;22;20174;-90
2021/12/06 07:17:24;;;;;;;33.40;13.77;;;;;;;;;;6250543;22;20154;-89
2021/12/06 07:20:35;;;;;;;34.43;13.73;;;;;;;;;;6249626;22;20263;-90
2021/12/06 07:23:41;;;;;;;31.23;13.63;;;;;;;;;;6249121;23;20197;-88
2021/12/06 07:26:47;;;;;;;29.27;12.57;;;;;;;;;;6249390;23;20166;-90
2021/12/06 07:29:53;;;;;;;33.30;14.10;;;;;;;;;;6250401;23;20182;-88
2021/12/06 07:33:00;;;;;;;34.43;13.20;;;;;;;;;;6249686;22;20171;-92
2021/12/06 07:36:07;;;;;;;33.37;12.40;;;;;;;;;;6249316;23;20214;-90
2021/12/06 07:39:14;;;;;;;33.20;14.60;;;;;;;;;;6249587;23;20154;-88
2021/12/06 07:42:20;;;;;;;36.10;12.50;;;;;;;;;;6249109;22;20178;-91
2021/12/06 07:45:26;;;;;;;32.57;12.97;;;;;;;;;;6248854;23;20185;-89
2021/12/06 07:48:31;;;;;;;29.60;12.40;;;;;;;;;;6247430;23;20169;-90
2021/12/06 07:51:38;;;;;;;29.77;12.67;;;;;;;;;;6249301;23;20157;-89
2021/12/06 07:54:43;;;;;;;28.07;13.10;;;;;;;;;;6250253;22;20171;-90
2021/12/06 07:57:49;;;;;;;29.90;12.17;;;;;;;;;;6249757;22;20270;-90
2021/12/06 08:00:55;;;;;;;35.33;14.10;;;;;;;;;;6250281;22;20161;-88
2021/12/06 08:04:01;;;;;;;32.40;12.47;;;;;;;;;;6249039;23;20186;-90
2021/12/06 08:10:58;;;;;;;29.03;12.30;;;;;;;;;;6251371;22;20188;-89
2021/12/06 08:14:03;;;;;;;33.77;13.30;;;;;;;;;;6247179;23;20170;-90
2021/12/06 08:17:08;;;;;;;32.63;13.10;;;;;;;;;;6247306;23;20214;-90
2021/12/06 08:20:13;;;;;;;32.90;12.27;;;;;;;;;;6247833;23;20170;-89
2021/12/06 08:23:19;;;;;;;38.47;15.03;;;;;;;;;;6248155;23;20283;-90
2021/12/06 08:26:27;;;;;;;37.07;13.67;;;;;;;;;;6248287;22;20150;-90
2021/12/06 08:29:33;;;;;;;58.60;24.07;;;;;;;;;;6248788;22;20190;-91
2021/12/06 08:32:39;;;;;;;35.37;14.00;;;;;;;;;;6249202;22;20173;-91
2021/12/06 08:35:46;;;;;;;31.47;11.27;;;;;;;;;;6248805;23;20219;-90
2021/12/06 08:38:52;;;;;;;27.77;12.03;;;;;;;;;;6249194;23;20154;-92
2021/12/06 08:41:59;;;;;;;26.53;12.00;;;;;;;;;;6249565;23;20170;-90
2021/12/06 08:45:05;;;;;;;29.53;12.83;;;;;;;;;;6248485;23;20150;-87
2021/12/06 08:48:10;;;;;;;32.57;13.43;;;;;;;;;;6249827;22;20187;-89
2021/12/06 08:51:20;;;;;;;32.00;12.73;;;;;;;;;;6247767;23;20252;-92
2021/12/06 08:54:29;;;;;;;31.33;12.37;;;;;;;;;;6248272;22;20176;-91
2021/12/06 08:57:36;;;;;;;29.40;12.37;;;;;;;;;;6248023;22;20203;-91
2021/12/06 09:00:42;;;;;;;33.40;12.90;;;;;;;;;;6248396;23;20179;-90
2021/12/06 09:03:48;;;;;;;35.53;13.03;;;;;;;;;;6247294;23;20182;-90
2021/12/06 23:15:01;;;;;;;43.37;16.67;;;;;;;;;;6216133;22;20236;-91
2021/12/06 23:18:07;;;;;;;44.13;17.73;;;;;;;;;;6215888;22;20191;-88
2021/12/06 23:21:14;;;;;;;39.50;16.23;;;;;;;;;;6218195;23;20299;-90
2021/12/06 23:24:21;;;;;;;44.27;17.47;;;;;;;;;;6219134;23;20206;-90
2021/12/06 23:30:48;;;;;;;44.03;17.97;;;;;;;;;;6217106;23;20192;-89
2021/12/06 23:33:54;;;;;;;47.03;17.70;;;;;;;;;;6214692;23;20179;-90
2021/12/06 23:37:01;;;;;;;48.33;18.57;;;;;;;;;;6232333;22;20183;-88
2021/12/06 23:40:28;;;;;;;53.23;19.60;;;;;;;;;;6212794;23;20167;-90
2021/12/06 23:46:58;;;;;;;46.63;18.87;;;;;;;;;;6211857;23;20212;-90
2021/12/06 23:50:11;;;;;;;47.93;19.10;;;;;;;;;;6212616;23;20623;-91
2021/12/06 23:53:16;;;;;;;48.27;18.17;;;;;;;;;;6218115;23;20544;-90
2021/12/06 23:56:23;;;;;;;49.67;19.83;;;;;;;;;;6218171;22;20163;-87
2021/12/06 23:59:32;;;;;;;48.57;19.67;;;;;;;;;;6216422;22;20161;-93
